createdAt,value
2022-10-27T00:00:08.128Z,7.75
2022-10-27T00:03:05.146Z,7.78
2022-10-27T00:06:07.185Z,7.89
2022-10-27T00:09:04.589Z,7.72
2022-10-27T00:12:01.441Z,7.58
2022-10-27T00:14:58.255Z,7.67
2022-10-27T00:17:55.075Z,7.44
2022-10-27T00:21:06.951Z,7.45
2022-10-27T00:24:04.042Z,7.47
2022-10-27T00:27:00.864Z,7.46
2022-10-27T00:29:58.078Z,7.45
2022-10-27T00:32:54.964Z,7.53
2022-10-27T00:35:51.819Z,7.46
2022-10-27T00:38:49.655Z,7.55
2022-10-27T00:41:46.619Z,7.53
2022-10-27T00:44:46.803Z,7.67
2022-10-27T00:47:43.689Z,7.61
2022-10-27T00:50:40.573Z,7.72
2022-10-27T00:53:37.757Z,7.56
2022-10-27T00:56:34.821Z,7.61
2022-10-27T00:59:31.702Z,7.60
2022-10-27T01:02:28.715Z,7.68
2022-10-27T01:05:28.393Z,7.74
2022-10-27T01:08:26.848Z,7.68
2022-10-27T01:11:23.803Z,7.74
2022-10-27T01:14:20.706Z,7.72
2022-10-27T01:17:52.676Z,7.74
2022-10-27T01:21:11.027Z,7.82
2022-10-27T01:24:41.898Z,7.80
2022-10-27T01:28:23.688Z,7.81
2022-10-27T01:31:34.671Z,7.81
2022-10-27T01:34:46.780Z,7.86
2022-10-27T01:38:00.579Z,7.84
2022-10-27T01:41:08.338Z,7.74
2022-10-27T01:44:12.892Z,7.84
2022-10-27T01:47:12.270Z,7.83
2022-10-27T01:50:09.704Z,7.88
2022-10-27T01:53:07.199Z,7.83
2022-10-27T01:56:31.283Z,7.90
2022-10-27T01:59:55.688Z,7.90
2022-10-27T02:03:06.804Z,8.06
2022-10-27T02:06:35.256Z,8.07
2022-10-27T02:09:55.576Z,7.98
2022-10-27T02:12:53.892Z,8.10
2022-10-27T02:15:57.289Z,8.15
2022-10-27T02:19:20.579Z,8.14
2022-10-27T02:22:17.980Z,8.19
2022-10-27T02:25:15.425Z,8.12
2022-10-27T02:28:16.047Z,8.05
2022-10-27T02:31:17.300Z,8.01
2022-10-27T02:34:16.316Z,7.86
2022-10-27T02:37:22.248Z,7.84
2022-10-27T02:40:19.925Z,7.74
2022-10-27T02:43:16.834Z,7.75
2022-10-27T02:46:13.988Z,7.86
2022-10-27T02:49:10.801Z,7.84
2022-10-27T02:52:07.658Z,7.75
2022-10-27T02:55:04.982Z,7.86
2022-10-27T02:58:01.818Z,7.91
2022-10-27T03:00:58.690Z,7.96
2022-10-27T03:03:55.527Z,7.95
2022-10-27T03:06:52.409Z,7.91
2022-10-27T03:09:49.207Z,7.89
2022-10-27T03:12:48.566Z,7.89
2022-10-27T03:15:45.940Z,7.88
2022-10-27T03:18:42.755Z,7.82
2022-10-27T03:21:39.578Z,7.79
2022-10-27T03:24:36.423Z,7.78
2022-10-27T03:27:33.273Z,7.69
2022-10-27T03:30:30.120Z,7.68
2022-10-27T03:33:27.052Z,7.62
2022-10-27T03:36:23.919Z,7.59
2022-10-27T03:39:20.732Z,7.54
2022-10-27T03:42:17.574Z,7.59
2022-10-27T03:45:14.530Z,7.49
2022-10-27T03:48:12.990Z,7.39
2022-10-27T03:51:10.010Z,7.31
2022-10-27T03:54:06.855Z,7.45
2022-10-27T03:57:03.757Z,7.58
2022-10-27T04:00:00.589Z,7.39
2022-10-27T04:02:57.455Z,7.49
2022-10-27T04:05:54.295Z,7.40
2022-10-27T04:08:51.413Z,7.60
2022-10-27T04:11:48.402Z,7.50
2022-10-27T04:14:45.583Z,7.43
2022-10-27T04:17:42.585Z,7.38
2022-10-27T04:20:39.523Z,7.37
2022-10-27T04:23:36.363Z,7.26
2022-10-27T04:26:33.328Z,7.29
2022-10-27T04:29:30.148Z,7.32
2022-10-27T04:32:27.057Z,7.27
2022-10-27T04:35:23.963Z,7.31
2022-10-27T04:38:20.901Z,7.28
2022-10-27T04:41:18.221Z,7.34
2022-10-27T04:44:15.059Z,7.31
2022-10-27T04:47:11.870Z,7.39
2022-10-27T04:50:09.112Z,7.54
2022-10-27T04:53:05.998Z,7.64
2022-10-27T04:56:03.093Z,7.68
2022-10-27T04:58:59.997Z,7.69
2022-10-27T05:01:56.916Z,7.84
2022-10-27T05:04:53.865Z,7.90
2022-10-27T05:08:02.539Z,7.87
2022-10-27T05:10:59.399Z,7.90
2022-10-27T05:13:56.221Z,7.97
2022-10-27T05:16:53.031Z,7.87
2022-10-27T05:19:49.886Z,7.92
2022-10-27T05:22:46.702Z,7.91
2022-10-27T05:28:46.693Z,8.00
2022-10-27T05:31:43.540Z,8.06
2022-10-27T05:34:40.477Z,8.04
2022-10-27T05:37:37.330Z,8.05
2022-10-27T05:40:34.570Z,8.11
2022-10-27T05:43:34.697Z,8.11
2022-10-27T05:46:34.914Z,8.17
2022-10-27T05:49:31.831Z,8.18
2022-10-27T05:52:28.646Z,8.22
2022-10-27T05:55:26.094Z,8.23
2022-10-27T05:58:23.433Z,8.38
2022-10-27T06:01:21.360Z,8.43
2022-10-27T06:04:18.351Z,8.47
2022-10-27T06:07:15.199Z,8.43
2022-10-27T06:10:12.260Z,8.47
2022-10-27T06:13:11.621Z,8.53
2022-10-27T06:16:10.818Z,8.54
2022-10-27T06:19:09.893Z,8.58
2022-10-27T06:22:06.798Z,8.60
2022-10-27T06:25:03.787Z,8.62
2022-10-27T06:28:00.621Z,8.63
2022-10-27T06:30:58.884Z,8.68
2022-10-27T06:33:56.056Z,8.68
2022-10-27T06:36:53.007Z,8.83
2022-10-27T06:39:50.007Z,8.90
2022-10-27T06:43:05.539Z,8.94
2022-10-27T06:46:03.666Z,9.02
2022-10-27T06:49:01.254Z,9.08
2022-10-27T06:52:00.303Z,9.15
2022-10-27T06:54:57.147Z,9.21
2022-10-27T06:57:57.154Z,9.17
2022-10-27T07:00:54.152Z,9.19
2022-10-27T07:03:51.463Z,9.22
2022-10-27T07:06:48.307Z,9.27
2022-10-27T07:09:45.163Z,9.35
2022-10-27T07:12:53.988Z,9.43
2022-10-27T07:15:51.044Z,9.44
2022-10-27T07:18:48.929Z,9.52
2022-10-27T07:21:45.771Z,9.58
2022-10-27T07:24:42.609Z,9.71
2022-10-27T07:27:39.429Z,9.82
2022-10-27T07:30:43.755Z,9.92
2022-10-27T07:33:40.601Z,9.97
2022-10-27T07:36:37.605Z,9.96
2022-10-27T07:39:36.875Z,10.06
2022-10-27T07:42:40.973Z,10.06
2022-10-27T07:45:41.391Z,10.30
2022-10-27T07:48:38.217Z,10.21
2022-10-27T07:51:37.598Z,10.15
2022-10-27T07:54:35.206Z,10.16
2022-10-27T07:57:32.120Z,10.08
2022-10-27T08:00:30.428Z,10.18
2022-10-27T08:03:30.021Z,10.11
2022-10-27T08:06:26.921Z,10.08
2022-10-27T08:09:26.588Z,10.06
2022-10-27T08:12:23.828Z,10.13
2022-10-27T08:15:20.909Z,10.20
2022-10-27T08:18:18.090Z,10.28
2022-10-27T08:21:16.237Z,10.13
2022-10-27T08:27:11.305Z,10.16
2022-10-27T08:30:10.109Z,10.09
2022-10-27T08:33:08.909Z,10.18
2022-10-27T08:36:06.042Z,10.21
2022-10-27T08:39:02.978Z,10.41
2022-10-27T08:42:12.968Z,10.40
2022-10-27T08:48:44.863Z,10.39
2022-10-27T08:51:45.610Z,10.34
2022-10-27T08:54:48.245Z,10.42
2022-10-27T08:58:38.097Z,11.25
2022-10-27T09:02:00.184Z,12.18
2022-10-27T09:05:19.057Z,12.45
2022-10-27T09:08:41.916Z,12.27
2022-10-27T09:11:47.845Z,13.99
2022-10-27T09:15:37.392Z,16.26
2022-10-27T09:18:55.399Z,15.82
2022-10-27T09:21:53.094Z,16.42
2022-10-27T09:25:13.643Z,17.67
2022-10-27T09:28:26.155Z,18.57
2022-10-27T09:31:42.949Z,18.45
2022-10-27T09:34:44.290Z,19.40
2022-10-27T09:37:42.657Z,18.87
2022-10-27T09:40:39.503Z,18.37
2022-10-27T09:43:37.863Z,16.30
2022-10-27T09:46:34.753Z,17.64
2022-10-27T09:49:40.824Z,18.53
2022-10-27T09:52:44.466Z,19.14
2022-10-27T09:55:53.696Z,18.44
2022-10-27T09:59:02.699Z,19.68
2022-10-27T10:02:00.257Z,20.01
2022-10-27T10:04:59.584Z,19.47
2022-10-27T10:08:35.266Z,19.92
2022-10-27T10:11:32.132Z,19.72
2022-10-27T10:14:29.658Z,19.91
2022-10-27T10:17:28.154Z,19.63
2022-10-27T10:23:51.913Z,20.68
2022-10-27T10:26:54.767Z,20.13
2022-10-27T10:29:51.756Z,20.29
2022-10-27T10:32:53.857Z,20.53
2022-10-27T10:35:52.475Z,20.04
2022-10-27T10:38:55.415Z,20.10
2022-10-27T10:42:10.589Z,20.05
2022-10-27T10:45:22.054Z,20.48
2022-10-27T10:48:53.981Z,20.75
2022-10-27T10:52:00.516Z,21.02
2022-10-27T10:54:57.853Z,21.07
2022-10-27T10:57:57.938Z,21.39
2022-10-27T11:01:06.547Z,21.00
2022-10-27T11:04:08.714Z,19.59
2022-10-27T11:07:28.829Z,19.93
2022-10-27T11:10:35.189Z,20.79
2022-10-27T11:13:49.184Z,20.72
2022-10-27T11:16:56.700Z,22.09
2022-10-27T11:19:57.067Z,21.85
2022-10-27T11:22:58.461Z,20.91
2022-10-27T11:25:58.481Z,22.58
2022-10-27T11:29:08.673Z,21.41
2022-10-27T11:32:37.106Z,20.70
2022-10-27T11:35:52.129Z,20.88
2022-10-27T11:39:02.896Z,21.45
2022-10-27T11:42:39.785Z,21.60
2022-10-27T11:46:12.804Z,22.08
2022-10-27T11:49:55.823Z,21.77
2022-10-27T11:52:57.586Z,22.25
2022-10-27T11:56:21.784Z,22.32
2022-10-27T11:59:57.819Z,20.90
2022-10-27T12:03:21.281Z,20.07
2022-10-27T12:06:44.854Z,20.74
2022-10-27T12:10:15.918Z,21.17
2022-10-27T12:13:44.860Z,21.62
2022-10-27T12:17:18.282Z,20.94
2022-10-27T12:20:24.791Z,20.80
2022-10-27T12:23:30.601Z,20.88
2022-10-27T12:26:43.902Z,20.61
2022-10-27T12:29:47.416Z,21.27
2022-10-27T12:32:56.008Z,20.64
2022-10-27T12:36:30.240Z,20.19
2022-10-27T12:40:18.158Z,20.43
2022-10-27T12:43:37.737Z,20.21
2022-10-27T12:47:07.482Z,19.30
2022-10-27T12:50:38.185Z,19.26
2022-10-27T12:54:25.842Z,19.89
2022-10-27T12:57:38.372Z,19.70
2022-10-27T13:01:19.105Z,19.37
2022-10-27T13:04:21.999Z,19.30
2022-10-27T13:08:25.042Z,19.52
2022-10-27T13:11:42.312Z,19.83
2022-10-27T13:15:24.548Z,19.41
2022-10-27T13:18:39.104Z,19.18
2022-10-27T13:21:52.176Z,19.45
2022-10-27T13:28:45.565Z,18.50
2022-10-27T13:31:42.420Z,18.81
2022-10-27T13:34:39.354Z,18.36
2022-10-27T13:38:09.773Z,18.63
2022-10-27T13:41:06.633Z,18.29
2022-10-27T13:44:03.553Z,17.66
2022-10-27T13:47:03.285Z,18.37
2022-10-27T13:50:01.181Z,17.88
2022-10-27T13:53:30.464Z,18.15
2022-10-27T13:56:39.819Z,18.25
2022-10-27T13:59:37.016Z,18.22
2022-10-27T14:02:50.529Z,17.63
2022-10-27T14:05:49.592Z,17.80
2022-10-27T14:08:46.589Z,17.74
2022-10-27T14:11:48.312Z,17.74
2022-10-27T14:14:54.108Z,17.74
2022-10-27T14:17:51.793Z,17.18
2022-10-27T14:20:48.911Z,17.19
2022-10-27T14:23:46.233Z,17.26
2022-10-27T14:26:43.106Z,17.26
2022-10-27T14:29:40.055Z,17.11
2022-10-27T14:32:36.937Z,17.31
2022-10-27T14:35:33.878Z,17.04
2022-10-27T14:41:35.951Z,17.02
2022-10-27T14:44:35.355Z,16.92
2022-10-27T14:47:34.187Z,16.37
2022-10-27T14:50:38.529Z,16.35
2022-10-27T14:53:36.781Z,15.89
2022-10-27T14:56:34.592Z,16.26
2022-10-27T14:59:31.494Z,16.48
2022-10-27T15:02:29.632Z,16.23
2022-10-27T15:05:40.159Z,15.67
2022-10-27T15:08:37.193Z,15.84
2022-10-27T15:11:36.941Z,15.85
2022-10-27T15:14:34.868Z,15.63
2022-10-27T15:17:35.685Z,15.56
2022-10-27T15:20:34.841Z,15.53
2022-10-27T15:23:32.734Z,15.54
2022-10-27T15:26:32.786Z,15.10
2022-10-27T15:29:29.866Z,14.92
2022-10-27T15:32:42.923Z,14.75
2022-10-27T15:35:42.498Z,14.64
2022-10-27T15:38:39.811Z,14.58
2022-10-27T15:41:46.229Z,14.54
2022-10-27T15:44:45.071Z,14.35
2022-10-27T15:47:48.398Z,14.10
2022-10-27T15:51:17.496Z,13.83
2022-10-27T15:54:36.337Z,13.75
2022-10-27T15:57:41.032Z,13.82
2022-10-27T16:00:38.011Z,13.45
2022-10-27T16:03:41.361Z,13.51
2022-10-27T16:06:38.310Z,13.50
2022-10-27T16:09:46.296Z,13.43
2022-10-27T16:12:44.536Z,13.22
2022-10-27T16:15:42.795Z,13.22
2022-10-27T16:18:42.509Z,12.88
2022-10-27T16:21:40.123Z,13.03
2022-10-27T16:24:37.221Z,12.95
2022-10-27T16:27:39.750Z,12.87
2022-10-27T16:30:37.090Z,12.65
2022-10-27T16:33:36.048Z,12.53
2022-10-27T16:36:32.971Z,12.71
2022-10-27T16:39:29.818Z,12.44
2022-10-27T16:42:27.665Z,12.57
2022-10-27T16:45:24.769Z,12.42
2022-10-27T16:48:21.708Z,12.47
2022-10-27T16:51:18.996Z,11.90
2022-10-27T16:54:15.824Z,12.09
2022-10-27T16:57:12.731Z,12.10
2022-10-27T17:00:13.344Z,12.36
2022-10-27T17:03:15.464Z,12.07
2022-10-27T17:06:14.143Z,11.71
2022-10-27T17:09:11.110Z,12.01
2022-10-27T17:12:08.056Z,11.95
2022-10-27T17:15:05.318Z,11.82
2022-10-27T17:18:02.740Z,11.66
2022-10-27T17:21:00.273Z,11.84
2022-10-27T17:23:57.812Z,11.45
2022-10-27T17:26:54.857Z,11.73
2022-10-27T17:29:51.944Z,11.76
2022-10-27T17:32:49.007Z,11.62
2022-10-27T17:35:56.053Z,11.31
2022-10-27T17:38:52.943Z,11.47
2022-10-27T17:41:49.813Z,11.35
2022-10-27T17:44:46.646Z,11.37
2022-10-27T17:47:44.646Z,11.23
2022-10-27T17:50:41.591Z,10.90
2022-10-27T17:53:39.626Z,11.10
2022-10-27T17:56:37.282Z,11.21
2022-10-27T17:59:34.154Z,11.26
2022-10-27T18:02:31.077Z,11.02
2022-10-27T18:05:29.652Z,11.01
2022-10-27T18:08:27.593Z,10.96
2022-10-27T18:11:27.983Z,11.18
2022-10-27T18:14:24.837Z,10.88
2022-10-27T18:17:21.697Z,10.85
2022-10-27T18:20:18.541Z,10.91
2022-10-27T18:23:15.404Z,11.13
2022-10-27T18:26:12.249Z,10.90
2022-10-27T18:29:11.323Z,10.75
2022-10-27T18:32:08.161Z,10.63
2022-10-27T18:35:05.855Z,10.67
2022-10-27T18:38:02.800Z,10.75
2022-10-27T18:41:01.691Z,10.65
2022-10-27T18:43:59.059Z,10.43
2022-10-27T18:46:55.997Z,10.44
2022-10-27T18:49:52.872Z,10.49
2022-10-27T18:52:50.255Z,10.47
2022-10-27T18:55:47.509Z,10.42
2022-10-27T18:58:45.961Z,10.42
2022-10-27T19:01:44.237Z,10.64
2022-10-27T19:04:41.235Z,10.54
2022-10-27T19:07:38.076Z,10.33
2022-10-27T19:10:34.990Z,10.46
2022-10-27T19:13:32.203Z,10.39
2022-10-27T19:16:30.921Z,10.12
2022-10-27T19:19:28.811Z,10.25
2022-10-27T19:22:25.736Z,10.07
2022-10-27T19:25:22.621Z,10.29
2022-10-27T19:28:22.372Z,10.16
2022-10-27T19:31:22.873Z,10.18
2022-10-27T19:34:19.767Z,9.97
2022-10-27T19:37:16.668Z,9.80
2022-10-27T19:40:13.553Z,9.83
2022-10-27T19:43:10.418Z,9.82
2022-10-27T19:46:08.095Z,9.95
2022-10-27T19:49:07.693Z,9.94
2022-10-27T19:52:04.641Z,9.83
2022-10-27T19:55:01.460Z,9.95
2022-10-27T19:57:58.840Z,9.85
2022-10-27T20:00:55.713Z,9.85
2022-10-27T20:03:52.742Z,10.06
2022-10-27T20:06:49.728Z,9.82
2022-10-27T20:09:46.612Z,9.97
2022-10-27T20:12:43.484Z,10.08
2022-10-27T20:15:40.365Z,10.08
2022-10-27T20:18:37.200Z,10.00
2022-10-27T20:21:34.332Z,10.08
2022-10-27T20:24:31.176Z,10.08
2022-10-27T20:27:29.510Z,10.17
2022-10-27T20:30:26.488Z,10.47
2022-10-27T20:33:24.774Z,10.48
2022-10-27T20:36:22.012Z,10.39
2022-10-27T20:39:22.232Z,10.05
2022-10-27T20:42:19.072Z,10.06
2022-10-27T20:45:15.990Z,10.32
2022-10-27T20:48:12.817Z,9.93
2022-10-27T20:51:15.177Z,10.04
2022-10-27T20:54:13.847Z,10.00
2022-10-27T20:57:10.710Z,9.89
2022-10-27T21:00:09.265Z,10.34
2022-10-27T21:03:06.113Z,10.18
2022-10-27T21:06:02.990Z,10.20
2022-10-27T21:09:02.944Z,10.09
2022-10-27T21:11:59.765Z,10.05
2022-10-27T21:14:56.596Z,10.15
2022-10-27T21:17:53.426Z,9.83
2022-10-27T21:20:50.357Z,9.88
2022-10-27T21:23:47.784Z,9.90
2022-10-27T21:26:45.078Z,9.78
2022-10-27T21:29:41.940Z,10.03
2022-10-27T21:32:38.770Z,9.94
2022-10-27T21:35:35.575Z,9.87
2022-10-27T21:38:37.391Z,9.80
2022-10-27T21:41:34.770Z,10.05
2022-10-27T21:44:31.633Z,10.01
2022-10-27T21:47:28.460Z,10.13
2022-10-27T21:50:25.341Z,9.91
2022-10-27T21:53:22.865Z,10.02
2022-10-27T21:56:19.683Z,10.14
2022-10-27T21:59:16.575Z,10.05
2022-10-27T22:02:13.448Z,10.10
2022-10-27T22:05:10.417Z,10.04
2022-10-27T22:08:08.085Z,9.92
2022-10-27T22:11:08.566Z,10.15
2022-10-27T22:14:05.799Z,10.16
2022-10-27T22:17:02.792Z,10.31
2022-10-27T22:19:59.644Z,10.25
2022-10-27T22:22:56.508Z,10.35
2022-10-27T22:25:53.520Z,10.09
2022-10-27T22:28:51.438Z,10.26
2022-10-27T22:31:48.259Z,10.28
2022-10-27T22:34:45.095Z,10.35
2022-10-27T22:37:41.942Z,10.43
2022-10-27T22:40:38.763Z,10.33
2022-10-27T22:43:35.985Z,10.44
2022-10-27T22:46:33.892Z,10.40
2022-10-27T22:49:30.892Z,10.28
2022-10-27T22:52:27.781Z,10.29
2022-10-27T22:55:24.683Z,10.49
2022-10-27T22:58:21.560Z,10.15
2022-10-27T23:01:31.610Z,10.22
2022-10-27T23:04:28.616Z,10.29
2022-10-27T23:07:25.457Z,10.23
2022-10-27T23:10:22.332Z,10.25
2022-10-27T23:13:19.162Z,10.24
2022-10-27T23:16:16.086Z,10.09
2022-10-27T23:19:14.051Z,10.40
2022-10-27T23:22:11.004Z,10.06
2022-10-27T23:25:08.353Z,10.15
2022-10-27T23:28:05.349Z,10.06
2022-10-27T23:31:03.180Z,10.01
2022-10-27T23:34:02.523Z,9.93
2022-10-27T23:36:59.382Z,9.87
2022-10-27T23:39:56.196Z,9.84
2022-10-27T23:42:54.602Z,9.86
2022-10-27T23:46:02.557Z,9.78
2022-10-27T23:48:59.773Z,9.83
2022-10-27T23:51:56.590Z,9.90
2022-10-27T23:54:53.444Z,10.10
2022-10-27T23:57:50.273Z,9.78
